sensor_id;sensor_type;location;lat;lon;timestamp;temperature;humidity
81842;DHT22;71284;50.918;7.092;2024-02-16T00:01:09;15.50;52.80
81842;DHT22;71284;50.918;7.092;2024-02-16T00:03:36;15.40;52.90
81842;DHT22;71284;50.918;7.092;2024-02-16T00:06:03;15.40;52.90
81842;DHT22;71284;50.918;7.092;2024-02-16T00:08:29;15.50;52.60
81842;DHT22;71284;50.918;7.092;2024-02-16T00:10:56;15.50;52.90
81842;DHT22;71284;50.918;7.092;2024-02-16T00:13:22;15.60;53.10
81842;DHT22;71284;50.918;7.092;2024-02-16T00:15:49;15.60;52.20
81842;DHT22;71284;50.918;7.092;2024-02-16T00:18:16;15.80;51.90
81842;DHT22;71284;50.918;7.092;2024-02-16T00:20:42;15.70;52.00
81842;DHT22;71284;50.918;7.092;2024-02-16T00:23:09;15.70;52.00
81842;DHT22;71284;50.918;7.092;2024-02-16T00:25:35;15.70;52.30
81842;DHT22;71284;50.918;7.092;2024-02-16T00:28:02;15.40;53.00
81842;DHT22;71284;50.918;7.092;2024-02-16T00:30:29;15.30;53.40
81842;DHT22;71284;50.918;7.092;2024-02-16T00:32:55;15.30;53.20
81842;DHT22;71284;50.918;7.092;2024-02-16T00:35:22;15.50;52.80
81842;DHT22;71284;50.918;7.092;2024-02-16T00:37:48;15.50;52.40
81842;DHT22;71284;50.918;7.092;2024-02-16T00:40:15;15.60;52.70
81842;DHT22;71284;50.918;7.092;2024-02-16T00:42:42;15.60;52.10
81842;DHT22;71284;50.918;7.092;2024-02-16T00:45:08;15.60;52.20
81842;DHT22;71284;50.918;7.092;2024-02-16T00:47:35;15.60;51.90
81842;DHT22;71284;50.918;7.092;2024-02-16T00:50:02;15.50;52.60
81842;DHT22;71284;50.918;7.092;2024-02-16T00:52:28;15.40;52.90
81842;DHT22;71284;50.918;7.092;2024-02-16T00:54:55;15.50;52.60
81842;DHT22;71284;50.918;7.092;2024-02-16T00:57:21;15.60;52.10
81842;DHT22;71284;50.918;7.092;2024-02-16T00:59:48;15.50;52.20
81842;DHT22;71284;50.918;7.092;2024-02-16T01:02:15;15.50;53.30
81842;DHT22;71284;50.918;7.092;2024-02-16T01:04:41;15.50;52.40
81842;DHT22;71284;50.918;7.092;2024-02-16T01:07:08;15.60;51.90
81842;DHT22;71284;50.918;7.092;2024-02-16T01:09:34;15.70;52.50
81842;DHT22;71284;50.918;7.092;2024-02-16T01:12:01;15.80;51.20
81842;DHT22;71284;50.918;7.092;2024-02-16T01:14:28;15.80;51.10
81842;DHT22;71284;50.918;7.092;2024-02-16T01:16:54;16.00;51.00
81842;DHT22;71284;50.918;7.092;2024-02-16T01:19:21;15.90;51.50
81842;DHT22;71284;50.918;7.092;2024-02-16T01:21:47;15.70;51.30
81842;DHT22;71284;50.918;7.092;2024-02-16T01:24:14;15.90;51.10
81842;DHT22;71284;50.918;7.092;2024-02-16T01:26:41;16.00;50.70
81842;DHT22;71284;50.918;7.092;2024-02-16T01:29:07;15.90;51.10
81842;DHT22;71284;50.918;7.092;2024-02-16T01:31:34;15.80;51.20
81842;DHT22;71284;50.918;7.092;2024-02-16T01:34:00;15.80;51.40
81842;DHT22;71284;50.918;7.092;2024-02-16T01:36:27;15.80;51.20
81842;DHT22;71284;50.918;7.092;2024-02-16T01:38:53;15.80;51.40
81842;DHT22;71284;50.918;7.092;2024-02-16T01:41:20;15.90;51.10
81842;DHT22;71284;50.918;7.092;2024-02-16T01:43:47;15.90;51.20
81842;DHT22;71284;50.918;7.092;2024-02-16T01:46:13;15.70;51.80
81842;DHT22;71284;50.918;7.092;2024-02-16T01:48:40;15.60;52.00
81842;DHT22;71284;50.918;7.092;2024-02-16T01:51:07;15.60;52.00
81842;DHT22;71284;50.918;7.092;2024-02-16T01:53:33;15.60;51.90
81842;DHT22;71284;50.918;7.092;2024-02-16T01:56:00;15.80;51.40
81842;DHT22;71284;50.918;7.092;2024-02-16T01:58:26;15.80;51.50
81842;DHT22;71284;50.918;7.092;2024-02-16T02:00:53;15.80;51.30
81842;DHT22;71284;50.918;7.092;2024-02-16T02:03:20;15.70;51.90
81842;DHT22;71284;50.918;7.092;2024-02-16T02:05:46;15.80;52.30
81842;DHT22;71284;50.918;7.092;2024-02-16T02:08:13;15.80;52.70
81842;DHT22;71284;50.918;7.092;2024-02-16T02:10:40;15.80;53.60
81842;DHT22;71284;50.918;7.092;2024-02-16T02:13:06;15.80;54.30
81842;DHT22;71284;50.918;7.092;2024-02-16T02:15:33;15.80;56.00
81842;DHT22;71284;50.918;7.092;2024-02-16T02:17:59;15.90;55.20
81842;DHT22;71284;50.918;7.092;2024-02-16T02:20:26;15.80;55.00
81842;DHT22;71284;50.918;7.092;2024-02-16T02:22:53;15.80;55.20
81842;DHT22;71284;50.918;7.092;2024-02-16T02:25:19;15.80;55.80
81842;DHT22;71284;50.918;7.092;2024-02-16T02:27:46;15.70;57.10
81842;DHT22;71284;50.918;7.092;2024-02-16T02:30:12;15.70;54.90
81842;DHT22;71284;50.918;7.092;2024-02-16T02:32:39;15.70;55.70
81842;DHT22;71284;50.918;7.092;2024-02-16T02:35:07;15.70;54.30
81842;DHT22;71284;50.918;7.092;2024-02-16T02:37:33;15.70;55.10
81842;DHT22;71284;50.918;7.092;2024-02-16T02:40:00;15.70;55.10
81842;DHT22;71284;50.918;7.092;2024-02-16T02:42:26;15.70;54.60
81842;DHT22;71284;50.918;7.092;2024-02-16T02:44:53;15.70;55.00
81842;DHT22;71284;50.918;7.092;2024-02-16T02:47:20;15.60;54.80
81842;DHT22;71284;50.918;7.092;2024-02-16T02:49:46;15.40;55.10
81842;DHT22;71284;50.918;7.092;2024-02-16T02:52:13;15.40;54.90
81842;DHT22;71284;50.918;7.092;2024-02-16T02:54:39;15.40;54.70
81842;DHT22;71284;50.918;7.092;2024-02-16T02:57:06;15.50;54.60
81842;DHT22;71284;50.918;7.092;2024-02-16T02:59:33;15.60;54.10
81842;DHT22;71284;50.918;7.092;2024-02-16T03:01:59;15.70;53.80
81842;DHT22;71284;50.918;7.092;2024-02-16T03:04:26;15.70;54.20
81842;DHT22;71284;50.918;7.092;2024-02-16T03:06:52;15.70;54.10
81842;DHT22;71284;50.918;7.092;2024-02-16T03:09:19;15.40;54.50
81842;DHT22;71284;50.918;7.092;2024-02-16T03:11:46;15.40;54.70
81842;DHT22;71284;50.918;7.092;2024-02-16T03:14:13;15.50;54.30
81842;DHT22;71284;50.918;7.092;2024-02-16T03:16:39;15.60;54.30
81842;DHT22;71284;50.918;7.092;2024-02-16T03:19:06;15.70;54.70
81842;DHT22;71284;50.918;7.092;2024-02-16T03:21:33;15.50;54.20
81842;DHT22;71284;50.918;7.092;2024-02-16T03:24:01;15.20;56.10
81842;DHT22;71284;50.918;7.092;2024-02-16T03:26:26;15.20;55.50
81842;DHT22;71284;50.918;7.092;2024-02-16T03:28:53;15.40;55.00
81842;DHT22;71284;50.918;7.092;2024-02-16T03:31:20;15.50;54.60
81842;DHT22;71284;50.918;7.092;2024-02-16T03:33:47;15.50;54.20
81842;DHT22;71284;50.918;7.092;2024-02-16T03:36:13;15.60;53.80
81842;DHT22;71284;50.918;7.092;2024-02-16T03:38:42;15.60;54.50
81842;DHT22;71284;50.918;7.092;2024-02-16T03:41:12;15.60;53.50
81842;DHT22;71284;50.918;7.092;2024-02-16T03:43:35;15.60;54.10
81842;DHT22;71284;50.918;7.092;2024-02-16T03:46:01;15.50;53.70
81842;DHT22;71284;50.918;7.092;2024-02-16T03:48:28;15.60;53.50
81842;DHT22;71284;50.918;7.092;2024-02-16T03:50:55;15.60;53.80
81842;DHT22;71284;50.918;7.092;2024-02-16T03:53:21;15.40;53.80
81842;DHT22;71284;50.918;7.092;2024-02-16T03:55:48;15.60;53.80
81842;DHT22;71284;50.918;7.092;2024-02-16T03:58:14;15.70;53.60
81842;DHT22;71284;50.918;7.092;2024-02-16T04:00:41;15.60;54.80
81842;DHT22;71284;50.918;7.092;2024-02-16T04:03:08;15.70;53.70
81842;DHT22;71284;50.918;7.092;2024-02-16T04:05:35;15.70;54.30
81842;DHT22;71284;50.918;7.092;2024-02-16T04:08:01;15.40;54.70
81842;DHT22;71284;50.918;7.092;2024-02-16T04:10:27;15.40;54.50
81842;DHT22;71284;50.918;7.092;2024-02-16T04:12:55;15.40;54.60
81842;DHT22;71284;50.918;7.092;2024-02-16T04:15:22;15.30;55.10
81842;DHT22;71284;50.918;7.092;2024-02-16T04:17:48;15.20;55.50
81842;DHT22;71284;50.918;7.092;2024-02-16T04:20:15;15.20;55.50
81842;DHT22;71284;50.918;7.092;2024-02-16T04:22:42;15.30;55.10
81842;DHT22;71284;50.918;7.092;2024-02-16T04:25:09;15.20;55.50
81842;DHT22;71284;50.918;7.092;2024-02-16T04:27:35;15.20;55.20
81842;DHT22;71284;50.918;7.092;2024-02-16T04:30:02;15.20;55.60
81842;DHT22;71284;50.918;7.092;2024-02-16T04:32:28;15.30;55.20
81842;DHT22;71284;50.918;7.092;2024-02-16T04:34:55;15.40;55.10
81842;DHT22;71284;50.918;7.092;2024-02-16T04:37:23;15.30;55.40
81842;DHT22;71284;50.918;7.092;2024-02-16T04:39:49;15.30;55.70
81842;DHT22;71284;50.918;7.092;2024-02-16T04:42:16;15.30;55.80
81842;DHT22;71284;50.918;7.092;2024-02-16T04:44:42;15.40;55.30
81842;DHT22;71284;50.918;7.092;2024-02-16T04:47:09;15.50;55.20
81842;DHT22;71284;50.918;7.092;2024-02-16T04:49:36;15.50;55.80
81842;DHT22;71284;50.918;7.092;2024-02-16T04:52:02;15.40;56.20
81842;DHT22;71284;50.918;7.092;2024-02-16T04:54:29;15.30;56.60
81842;DHT22;71284;50.918;7.092;2024-02-16T04:56:55;15.30;56.50
81842;DHT22;71284;50.918;7.092;2024-02-16T04:59:22;15.30;56.30
81842;DHT22;71284;50.918;7.092;2024-02-16T05:01:49;15.50;56.30
81842;DHT22;71284;50.918;7.092;2024-02-16T05:04:15;15.40;56.60
81842;DHT22;71284;50.918;7.092;2024-02-16T05:06:43;15.50;56.30
81842;DHT22;71284;50.918;7.092;2024-02-16T05:09:09;15.50;56.40
81842;DHT22;71284;50.918;7.092;2024-02-16T05:11:36;15.40;56.80
81842;DHT22;71284;50.918;7.092;2024-02-16T05:14:02;15.30;57.10
81842;DHT22;71284;50.918;7.092;2024-02-16T05:16:29;15.30;57.40
81842;DHT22;71284;50.918;7.092;2024-02-16T05:18:56;15.30;57.10
81842;DHT22;71284;50.918;7.092;2024-02-16T05:21:23;15.50;56.80
81842;DHT22;71284;50.918;7.092;2024-02-16T05:23:50;15.60;56.80
81842;DHT22;71284;50.918;7.092;2024-02-16T05:26:16;15.30;57.70
81842;DHT22;71284;50.918;7.092;2024-02-16T05:28:43;15.20;57.90
81842;DHT22;71284;50.918;7.092;2024-02-16T05:31:14;15.20;58.00
81842;DHT22;71284;50.918;7.092;2024-02-16T05:33:40;15.20;58.20
81842;DHT22;71284;50.918;7.092;2024-02-16T05:36:07;15.10;58.40
81842;DHT22;71284;50.918;7.092;2024-02-16T05:38:33;15.20;58.10
81842;DHT22;71284;50.918;7.092;2024-02-16T05:41:00;15.20;57.90
81842;DHT22;71284;50.918;7.092;2024-02-16T05:43:27;15.20;57.90
81842;DHT22;71284;50.918;7.092;2024-02-16T05:45:53;15.30;57.80
81842;DHT22;71284;50.918;7.092;2024-02-16T05:48:20;15.20;58.00
81842;DHT22;71284;50.918;7.092;2024-02-16T05:50:46;15.20;57.90
81842;DHT22;71284;50.918;7.092;2024-02-16T05:53:13;15.10;58.20
81842;DHT22;71284;50.918;7.092;2024-02-16T05:55:40;15.10;58.30
81842;DHT22;71284;50.918;7.092;2024-02-16T05:58:06;14.90;58.80
81842;DHT22;71284;50.918;7.092;2024-02-16T06:00:33;15.00;58.10
81842;DHT22;71284;50.918;7.092;2024-02-16T06:02:59;15.10;57.90
81842;DHT22;71284;50.918;7.092;2024-02-16T06:05:26;15.30;57.50
81842;DHT22;71284;50.918;7.092;2024-02-16T06:07:53;15.30;57.10
81842;DHT22;71284;50.918;7.092;2024-02-16T06:10:19;15.20;57.60
81842;DHT22;71284;50.918;7.092;2024-02-16T06:12:46;15.20;57.70
81842;DHT22;71284;50.918;7.092;2024-02-16T06:15:12;15.20;57.70
81842;DHT22;71284;50.918;7.092;2024-02-16T06:17:39;15.20;57.80
81842;DHT22;71284;50.918;7.092;2024-02-16T06:20:06;15.20;57.80
81842;DHT22;71284;50.918;7.092;2024-02-16T06:22:33;15.30;57.50
81842;DHT22;71284;50.918;7.092;2024-02-16T06:24:59;15.30;57.40
81842;DHT22;71284;50.918;7.092;2024-02-16T06:27:26;15.20;57.50
81842;DHT22;71284;50.918;7.092;2024-02-16T06:29:53;15.20;57.40
81842;DHT22;71284;50.918;7.092;2024-02-16T06:32:19;15.10;57.50
81842;DHT22;71284;50.918;7.092;2024-02-16T06:34:46;15.20;57.10
81842;DHT22;71284;50.918;7.092;2024-02-16T06:37:12;15.20;57.10
81842;DHT22;71284;50.918;7.092;2024-02-16T06:39:39;15.20;57.20
81842;DHT22;71284;50.918;7.092;2024-02-16T06:42:06;15.00;57.90
81842;DHT22;71284;50.918;7.092;2024-02-16T06:44:32;14.90;58.20
81842;DHT22;71284;50.918;7.092;2024-02-16T06:46:59;15.00;57.80
81842;DHT22;71284;50.918;7.092;2024-02-16T06:49:25;15.20;57.20
81842;DHT22;71284;50.918;7.092;2024-02-16T06:51:52;15.30;56.60
81842;DHT22;71284;50.918;7.092;2024-02-16T06:54:18;15.40;56.00
81842;DHT22;71284;50.918;7.092;2024-02-16T06:56:45;15.20;56.70
81842;DHT22;71284;50.918;7.092;2024-02-16T06:59:12;15.30;56.60
81842;DHT22;71284;50.918;7.092;2024-02-16T07:01:38;15.50;55.80
81842;DHT22;71284;50.918;7.092;2024-02-16T07:04:05;15.60;55.10
81842;DHT22;71284;50.918;7.092;2024-02-16T07:06:31;15.70;54.90
81842;DHT22;71284;50.918;7.092;2024-02-16T07:08:58;15.60;54.90
81842;DHT22;71284;50.918;7.092;2024-02-16T07:11:25;15.80;54.80
81842;DHT22;71284;50.918;7.092;2024-02-16T07:13:51;15.80;54.30
81842;DHT22;71284;50.918;7.092;2024-02-16T07:16:18;15.90;54.30
81842;DHT22;71284;50.918;7.092;2024-02-16T07:18:44;16.00;53.80
81842;DHT22;71284;50.918;7.092;2024-02-16T07:21:11;16.00;53.90
81842;DHT22;71284;50.918;7.092;2024-02-16T07:23:38;16.10;53.70
81842;DHT22;71284;50.918;7.092;2024-02-16T07:26:04;16.20;53.40
81842;DHT22;71284;50.918;7.092;2024-02-16T07:28:31;16.20;53.10
81842;DHT22;71284;50.918;7.092;2024-02-16T07:30:57;16.30;53.60
81842;DHT22;71284;50.918;7.092;2024-02-16T07:33:24;16.30;53.30
81842;DHT22;71284;50.918;7.092;2024-02-16T07:35:51;16.30;53.40
81842;DHT22;71284;50.918;7.092;2024-02-16T07:38:17;16.30;53.70
81842;DHT22;71284;50.918;7.092;2024-02-16T07:40:44;16.40;54.50
81842;DHT22;71284;50.918;7.092;2024-02-16T07:43:10;16.40;54.00
81842;DHT22;71284;50.918;7.092;2024-02-16T07:45:37;16.20;54.10
81842;DHT22;71284;50.918;7.092;2024-02-16T07:48:05;16.20;54.60
81842;DHT22;71284;50.918;7.092;2024-02-16T07:50:31;16.20;54.40
81842;DHT22;71284;50.918;7.092;2024-02-16T07:52:57;16.00;55.00
81842;DHT22;71284;50.918;7.092;2024-02-16T07:55:24;16.00;55.00
81842;DHT22;71284;50.918;7.092;2024-02-16T07:57:51;16.10;54.90
81842;DHT22;71284;50.918;7.092;2024-02-16T08:00:17;16.00;55.10
81842;DHT22;71284;50.918;7.092;2024-02-16T08:02:44;15.80;55.60
81842;DHT22;71284;50.918;7.092;2024-02-16T08:05:10;15.90;55.90
81842;DHT22;71284;50.918;7.092;2024-02-16T08:07:37;16.00;55.20
81842;DHT22;71284;50.918;7.092;2024-02-16T08:10:04;16.10;55.10
81842;DHT22;71284;50.918;7.092;2024-02-16T08:12:31;16.10;54.80
81842;DHT22;71284;50.918;7.092;2024-02-16T08:14:57;16.20;54.50
81842;DHT22;71284;50.918;7.092;2024-02-16T08:17:24;16.20;54.50
81842;DHT22;71284;50.918;7.092;2024-02-16T08:19:52;16.10;55.20
81842;DHT22;71284;50.918;7.092;2024-02-16T08:22:18;15.90;55.90
81842;DHT22;71284;50.918;7.092;2024-02-16T08:24:45;16.10;55.00
81842;DHT22;71284;50.918;7.092;2024-02-16T08:27:13;16.20;54.90
81842;DHT22;71284;50.918;7.092;2024-02-16T08:29:39;16.20;54.90
81842;DHT22;71284;50.918;7.092;2024-02-16T08:32:06;16.20;55.00
81842;DHT22;71284;50.918;7.092;2024-02-16T08:34:33;16.30;54.40
81842;DHT22;71284;50.918;7.092;2024-02-16T08:36:59;16.30;54.50
81842;DHT22;71284;50.918;7.092;2024-02-16T08:39:26;16.20;55.00
81842;DHT22;71284;50.918;7.092;2024-02-16T08:41:52;16.30;54.40
81842;DHT22;71284;50.918;7.092;2024-02-16T08:44:19;16.30;54.40
81842;DHT22;71284;50.918;7.092;2024-02-16T08:46:46;16.30;54.80
81842;DHT22;71284;50.918;7.092;2024-02-16T08:49:12;16.40;54.60
81842;DHT22;71284;50.918;7.092;2024-02-16T08:51:39;16.40;54.90
81842;DHT22;71284;50.918;7.092;2024-02-16T08:54:05;16.40;54.90
81842;DHT22;71284;50.918;7.092;2024-02-16T08:56:32;16.40;56.00
81842;DHT22;71284;50.918;7.092;2024-02-16T08:58:59;16.60;54.80
81842;DHT22;71284;50.918;7.092;2024-02-16T09:01:32;16.70;55.30
81842;DHT22;71284;50.918;7.092;2024-02-16T09:03:58;16.90;54.20
81842;DHT22;71284;50.918;7.092;2024-02-16T09:06:24;16.80;54.20
81842;DHT22;71284;50.918;7.092;2024-02-16T09:08:51;16.90;53.30
81842;DHT22;71284;50.918;7.092;2024-02-16T09:11:17;16.80;54.20
81842;DHT22;71284;50.918;7.092;2024-02-16T09:13:44;16.90;53.60
81842;DHT22;71284;50.918;7.092;2024-02-16T09:16:11;17.00;53.20
81842;DHT22;71284;50.918;7.092;2024-02-16T09:18:37;16.90;53.30
81842;DHT22;71284;50.918;7.092;2024-02-16T09:21:04;16.90;53.20
81842;DHT22;71284;50.918;7.092;2024-02-16T09:23:31;17.00;53.10
81842;DHT22;71284;50.918;7.092;2024-02-16T09:25:57;17.10;53.30
81842;DHT22;71284;50.918;7.092;2024-02-16T09:28:24;16.80;54.70
81842;DHT22;71284;50.918;7.092;2024-02-16T09:30:50;16.80;53.70
81842;DHT22;71284;50.918;7.092;2024-02-16T09:33:17;17.00;53.60
81842;DHT22;71284;50.918;7.092;2024-02-16T09:35:43;17.20;52.70
81842;DHT22;71284;50.918;7.092;2024-02-16T09:38:10;17.40;52.60
81842;DHT22;71284;50.918;7.092;2024-02-16T09:40:37;17.20;52.40
81842;DHT22;71284;50.918;7.092;2024-02-16T09:43:03;17.10;53.10
81842;DHT22;71284;50.918;7.092;2024-02-16T09:45:30;17.10;53.30
81842;DHT22;71284;50.918;7.092;2024-02-16T09:47:57;17.00;53.40
81842;DHT22;71284;50.918;7.092;2024-02-16T09:50:23;17.10;53.80
81842;DHT22;71284;50.918;7.092;2024-02-16T09:52:50;17.10;54.00
81842;DHT22;71284;50.918;7.092;2024-02-16T09:55:17;17.20;54.10
81842;DHT22;71284;50.918;7.092;2024-02-16T09:57:43;17.00;53.60
81842;DHT22;71284;50.918;7.092;2024-02-16T10:00:10;17.00;54.10
81842;DHT22;71284;50.918;7.092;2024-02-16T10:02:42;17.10;54.00
81842;DHT22;71284;50.918;7.092;2024-02-16T10:05:11;17.00;54.10
81842;DHT22;71284;50.918;7.092;2024-02-16T10:07:36;16.90;54.20
81842;DHT22;71284;50.918;7.092;2024-02-16T10:10:02;16.90;55.00
81842;DHT22;71284;50.918;7.092;2024-02-16T10:12:29;16.80;54.90
81842;DHT22;71284;50.918;7.092;2024-02-16T10:14:56;16.90;54.60
81842;DHT22;71284;50.918;7.092;2024-02-16T10:17:22;16.80;54.90
81842;DHT22;71284;50.918;7.092;2024-02-16T10:19:55;16.80;55.40
81842;DHT22;71284;50.918;7.092;2024-02-16T10:22:21;16.90;56.30
81842;DHT22;71284;50.918;7.092;2024-02-16T10:24:48;16.70;57.40
81842;DHT22;71284;50.918;7.092;2024-02-16T10:27:15;16.70;57.60
81842;DHT22;71284;50.918;7.092;2024-02-16T10:29:43;16.70;57.70
81842;DHT22;71284;50.918;7.092;2024-02-16T10:32:09;16.70;58.00
81842;DHT22;71284;50.918;7.092;2024-02-16T10:34:35;16.80;57.90
81842;DHT22;71284;50.918;7.092;2024-02-16T10:37:02;16.70;58.60
81842;DHT22;71284;50.918;7.092;2024-02-16T10:39:29;16.60;58.80
81842;DHT22;71284;50.918;7.092;2024-02-16T10:41:55;16.60;58.90
81842;DHT22;71284;50.918;7.092;2024-02-16T10:44:22;16.60;59.20
81842;DHT22;71284;50.918;7.092;2024-02-16T10:46:48;16.50;59.20
81842;DHT22;71284;50.918;7.092;2024-02-16T10:49:15;16.60;59.10
81842;DHT22;71284;50.918;7.092;2024-02-16T10:51:45;16.60;59.10
81842;DHT22;71284;50.918;7.092;2024-02-16T10:54:10;16.60;59.10
81842;DHT22;71284;50.918;7.092;2024-02-16T10:56:37;16.60;59.50
81842;DHT22;71284;50.918;7.092;2024-02-16T10:59:04;16.50;60.00
81842;DHT22;71284;50.918;7.092;2024-02-16T11:01:32;16.40;59.30
81842;DHT22;71284;50.918;7.092;2024-02-16T11:04:01;16.40;59.30
81842;DHT22;71284;50.918;7.092;2024-02-16T11:06:27;16.40;59.80
81842;DHT22;71284;50.918;7.092;2024-02-16T11:08:53;16.40;59.90
81842;DHT22;71284;50.918;7.092;2024-02-16T11:11:23;16.20;60.80
81842;DHT22;71284;50.918;7.092;2024-02-16T11:13:50;16.20;61.40
81842;DHT22;71284;50.918;7.092;2024-02-16T11:16:17;16.20;61.10
81842;DHT22;71284;50.918;7.092;2024-02-16T11:18:43;16.20;60.90
81842;DHT22;71284;50.918;7.092;2024-02-16T11:21:11;16.20;60.50
81842;DHT22;71284;50.918;7.092;2024-02-16T11:23:36;16.30;59.80
81842;DHT22;71284;50.918;7.092;2024-02-16T11:26:04;16.50;59.20
81842;DHT22;71284;50.918;7.092;2024-02-16T11:28:31;16.60;59.30
81842;DHT22;71284;50.918;7.092;2024-02-16T11:30:57;16.50;59.50
81842;DHT22;71284;50.918;7.092;2024-02-16T11:33:24;16.60;59.50
81842;DHT22;71284;50.918;7.092;2024-02-16T11:35:57;16.60;59.20
81842;DHT22;71284;50.918;7.092;2024-02-16T11:38:23;16.70;58.80
81842;DHT22;71284;50.918;7.092;2024-02-16T11:41:01;16.50;59.60
81842;DHT22;71284;50.918;7.092;2024-02-16T11:43:26;16.60;59.10
81842;DHT22;71284;50.918;7.092;2024-02-16T11:45:53;16.70;59.20
81842;DHT22;71284;50.918;7.092;2024-02-16T11:48:21;16.80;58.80
81842;DHT22;71284;50.918;7.092;2024-02-16T11:50:47;16.80;58.80
81842;DHT22;71284;50.918;7.092;2024-02-16T11:53:17;16.90;58.40
81842;DHT22;71284;50.918;7.092;2024-02-16T11:55:46;17.20;58.10
81842;DHT22;71284;50.918;7.092;2024-02-16T11:58:13;17.30;57.90
81842;DHT22;71284;50.918;7.092;2024-02-16T12:00:40;17.40;57.60
81842;DHT22;71284;50.918;7.092;2024-02-16T12:03:06;17.30;58.10
81842;DHT22;71284;50.918;7.092;2024-02-16T12:05:33;17.30;57.90
81842;DHT22;71284;50.918;7.092;2024-02-16T12:07:59;17.50;57.50
81842;DHT22;71284;50.918;7.092;2024-02-16T12:10:26;17.80;56.60
81842;DHT22;71284;50.918;7.092;2024-02-16T12:12:52;17.80;56.60
81842;DHT22;71284;50.918;7.092;2024-02-16T12:15:19;17.90;56.70
81842;DHT22;71284;50.918;7.092;2024-02-16T12:17:46;17.80;56.50
81842;DHT22;71284;50.918;7.092;2024-02-16T12:20:12;17.90;57.70
81842;DHT22;71284;50.918;7.092;2024-02-16T12:22:39;17.90;57.40
81842;DHT22;71284;50.918;7.092;2024-02-16T12:25:06;17.80;57.10
81842;DHT22;71284;50.918;7.092;2024-02-16T12:27:33;17.90;57.40
81842;DHT22;71284;50.918;7.092;2024-02-16T12:29:59;17.80;58.60
81842;DHT22;71284;50.918;7.092;2024-02-16T12:32:26;17.80;58.80
81842;DHT22;71284;50.918;7.092;2024-02-16T12:34:52;17.50;59.50
81842;DHT22;71284;50.918;7.092;2024-02-16T12:37:19;17.30;59.80
81842;DHT22;71284;50.918;7.092;2024-02-16T12:39:45;17.40;59.40
81842;DHT22;71284;50.918;7.092;2024-02-16T12:42:12;17.40;59.20
81842;DHT22;71284;50.918;7.092;2024-02-16T12:44:39;17.40;59.90
81842;DHT22;71284;50.918;7.092;2024-02-16T12:47:05;17.40;59.70
81842;DHT22;71284;50.918;7.092;2024-02-16T12:49:32;17.30;59.80
81842;DHT22;71284;50.918;7.092;2024-02-16T12:51:58;17.40;59.10
81842;DHT22;71284;50.918;7.092;2024-02-16T12:54:25;17.40;59.00
81842;DHT22;71284;50.918;7.092;2024-02-16T12:56:52;17.40;59.30
81842;DHT22;71284;50.918;7.092;2024-02-16T12:59:18;17.40;58.50
81842;DHT22;71284;50.918;7.092;2024-02-16T13:01:45;17.40;58.70
81842;DHT22;71284;50.918;7.092;2024-02-16T13:04:11;17.40;58.00
81842;DHT22;71284;50.918;7.092;2024-02-16T13:06:38;17.40;58.70
81842;DHT22;71284;50.918;7.092;2024-02-16T13:09:05;17.40;58.80
81842;DHT22;71284;50.918;7.092;2024-02-16T13:11:31;17.50;58.40
81842;DHT22;71284;50.918;7.092;2024-02-16T13:13:58;17.60;58.00
81842;DHT22;71284;50.918;7.092;2024-02-16T13:16:24;17.60;58.00
81842;DHT22;71284;50.918;7.092;2024-02-16T13:18:51;17.60;58.20
81842;DHT22;71284;50.918;7.092;2024-02-16T13:21:17;17.60;58.70
81842;DHT22;71284;50.918;7.092;2024-02-16T13:23:44;17.60;60.20
81842;DHT22;71284;50.918;7.092;2024-02-16T13:26:11;17.60;60.40
81842;DHT22;71284;50.918;7.092;2024-02-16T13:28:37;17.50;60.80
81842;DHT22;71284;50.918;7.092;2024-02-16T13:31:04;17.40;61.80
81842;DHT22;71284;50.918;7.092;2024-02-16T13:33:30;17.30;62.10
81842;DHT22;71284;50.918;7.092;2024-02-16T13:35:57;17.30;62.70
81842;DHT22;71284;50.918;7.092;2024-02-16T13:38:24;17.20;62.80
81842;DHT22;71284;50.918;7.092;2024-02-16T13:40:50;17.20;63.30
81842;DHT22;71284;50.918;7.092;2024-02-16T13:43:17;17.20;62.60
81842;DHT22;71284;50.918;7.092;2024-02-16T13:45:51;17.20;62.80
81842;DHT22;71284;50.918;7.092;2024-02-16T13:48:17;17.10;63.70
81842;DHT22;71284;50.918;7.092;2024-02-16T13:50:45;17.10;63.60
81842;DHT22;71284;50.918;7.092;2024-02-16T13:53:11;16.90;64.70
81842;DHT22;71284;50.918;7.092;2024-02-16T13:55:37;16.90;64.90
81842;DHT22;71284;50.918;7.092;2024-02-16T13:58:04;17.00;64.30
81842;DHT22;71284;50.918;7.092;2024-02-16T14:00:30;16.90;64.70
81842;DHT22;71284;50.918;7.092;2024-02-16T14:02:57;16.80;65.10
81842;DHT22;71284;50.918;7.092;2024-02-16T14:05:23;16.90;64.90
81842;DHT22;71284;50.918;7.092;2024-02-16T14:07:50;16.80;64.90
81842;DHT22;71284;50.918;7.092;2024-02-16T14:10:17;16.90;64.90
81842;DHT22;71284;50.918;7.092;2024-02-16T14:12:44;16.90;65.00
81842;DHT22;71284;50.918;7.092;2024-02-16T14:15:11;16.80;65.40
81842;DHT22;71284;50.918;7.092;2024-02-16T14:17:37;16.80;65.30
81842;DHT22;71284;50.918;7.092;2024-02-16T14:20:04;16.80;65.70
81842;DHT22;71284;50.918;7.092;2024-02-16T14:22:31;16.80;65.70
81842;DHT22;71284;50.918;7.092;2024-02-16T14:24:58;16.80;65.50
81842;DHT22;71284;50.918;7.092;2024-02-16T14:27:24;16.90;65.90
81842;DHT22;71284;50.918;7.092;2024-02-16T14:29:51;16.70;66.50
81842;DHT22;71284;50.918;7.092;2024-02-16T14:32:18;16.70;66.30
81842;DHT22;71284;50.918;7.092;2024-02-16T14:34:44;16.80;66.00
81842;DHT22;71284;50.918;7.092;2024-02-16T14:37:11;16.70;66.30
81842;DHT22;71284;50.918;7.092;2024-02-16T14:39:37;16.60;66.10
81842;DHT22;71284;50.918;7.092;2024-02-16T14:42:04;16.70;66.30
81842;DHT22;71284;50.918;7.092;2024-02-16T14:44:31;16.70;65.90
81842;DHT22;71284;50.918;7.092;2024-02-16T14:46:57;16.80;65.50
81842;DHT22;71284;50.918;7.092;2024-02-16T14:49:24;16.90;65.50
81842;DHT22;71284;50.918;7.092;2024-02-16T14:51:51;16.90;65.00
81842;DHT22;71284;50.918;7.092;2024-02-16T14:54:17;17.00;63.70
81842;DHT22;71284;50.918;7.092;2024-02-16T14:56:44;16.90;64.40
81842;DHT22;71284;50.918;7.092;2024-02-16T14:59:10;17.00;64.40
81842;DHT22;71284;50.918;7.092;2024-02-16T15:01:37;16.90;64.60
81842;DHT22;71284;50.918;7.092;2024-02-16T15:04:04;16.90;64.60
81842;DHT22;71284;50.918;7.092;2024-02-16T15:06:30;17.00;64.50
81842;DHT22;71284;50.918;7.092;2024-02-16T15:08:57;17.00;64.40
81842;DHT22;71284;50.918;7.092;2024-02-16T15:11:24;17.00;64.30
81842;DHT22;71284;50.918;7.092;2024-02-16T15:13:50;17.00;64.80
81842;DHT22;71284;50.918;7.092;2024-02-16T15:16:17;16.90;65.60
81842;DHT22;71284;50.918;7.092;2024-02-16T15:18:44;16.80;66.00
81842;DHT22;71284;50.918;7.092;2024-02-16T15:21:10;16.60;66.90
81842;DHT22;71284;50.918;7.092;2024-02-16T15:23:37;16.60;67.10
81842;DHT22;71284;50.918;7.092;2024-02-16T15:26:03;16.60;67.20